JIA25 KATL-KMOB
Flight info
| Callsign | JIA25 |
|---|---|
| Flight time | 0h 59m |
| Altitude | 34000 |
| Route | POUNC2 GRGIA ARNNY SJI |
| Aircraft | CRJ9/M-SDFGIRWY/S |
Departure
| Time | 2026-05-05 17:11 |
|---|---|
| Airport | Hartsfield Jackson Atlanta International Airport (KATL) |
Arrival
| Time | 2026-05-05 18:11 |
|---|---|
| Airport | Mobile Regional Airport (KMOB) |
| Time | Latitude | Longitude | Altitude | Speed | Heading |
|---|---|---|---|---|---|
| 2026-05-05 16:32 | 33.64303 | -84.44189 | 1034 ft | 0 kts | 285° |
| 2026-05-05 16:53 | 33.64301 | -84.44178 | 1034 ft | 4 kts | 287° |
| 2026-05-05 16:54 | 33.64290 | -84.44149 | 1034 ft | 4 kts | 302° |
| 2026-05-05 16:54 | 33.64272 | -84.44126 | 1034 ft | 4 kts | 327° |
| 2026-05-05 16:54 | 33.64249 | -84.44117 | 1034 ft | 2 kts | 359° |
| 2026-05-05 16:54 | 33.64243 | -84.44117 | 1034 ft | 0 kts | 0° |
| 2026-05-05 16:56 | 33.64244 | -84.44117 | 1034 ft | 1 kts | 0° |
| 2026-05-05 16:56 | 33.64255 | -84.44117 | 1034 ft | 3 kts | 0° |
| 2026-05-05 16:57 | 33.64278 | -84.44117 | 1034 ft | 4 kts | 360° |
| 2026-05-05 16:57 | 33.64305 | -84.44117 | 1034 ft | 4 kts | 359° |
| 2026-05-05 16:57 | 33.64335 | -84.44118 | 1034 ft | 5 kts | 359° |
| 2026-05-05 16:57 | 33.64369 | -84.44119 | 1034 ft | 5 kts | 356° |
| 2026-05-05 16:58 | 33.64403 | -84.44120 | 1034 ft | 5 kts | 1° |
| 2026-05-05 16:58 | 33.64439 | -84.44111 | 1034 ft | 5 kts | 21° |
| 2026-05-05 16:58 | 33.64471 | -84.44087 | 1033 ft | 6 kts | 43° |
| 2026-05-05 16:58 | 33.64492 | -84.44052 | 1033 ft | 5 kts | 65° |
| 2026-05-05 16:59 | 33.64501 | -84.44010 | 1033 ft | 6 kts | 81° |
| 2026-05-05 16:59 | 33.64508 | -84.43960 | 1033 ft | 6 kts | 81° |
| 2026-05-05 16:59 | 33.64515 | -84.43907 | 1033 ft | 7 kts | 81° |
| 2026-05-05 16:59 | 33.64522 | -84.43847 | 1033 ft | 7 kts | 82° |
| 2026-05-05 17:00 | 33.64530 | -84.43786 | 1033 ft | 7 kts | 81° |
| 2026-05-05 17:00 | 33.64538 | -84.43724 | 1034 ft | 8 kts | 82° |
| 2026-05-05 17:00 | 33.64542 | -84.43662 | 1034 ft | 8 kts | 88° |
| 2026-05-05 17:00 | 33.64542 | -84.43596 | 1034 ft | 8 kts | 89° |
| 2026-05-05 17:01 | 33.64542 | -84.43530 | 1034 ft | 8 kts | 89° |
| 2026-05-05 17:01 | 33.64543 | -84.43461 | 1034 ft | 8 kts | 89° |
| 2026-05-05 17:01 | 33.64543 | -84.43414 | 1034 ft | 9 kts | 89° |
| 2026-05-05 17:01 | 33.64544 | -84.43341 | 1034 ft | 9 kts | 89° |
| 2026-05-05 17:02 | 33.64544 | -84.43241 | 1034 ft | 9 kts | 90° |
| 2026-05-05 17:02 | 33.64544 | -84.43165 | 1034 ft | 9 kts | 90° |
| 2026-05-05 17:02 | 33.64543 | -84.43086 | 1034 ft | 10 kts | 92° |
| 2026-05-05 17:02 | 33.64541 | -84.43031 | 1034 ft | 10 kts | 92° |
| 2026-05-05 17:03 | 33.64539 | -84.42947 | 1034 ft | 10 kts | 90° |
| 2026-05-05 17:03 | 33.64543 | -84.42862 | 1034 ft | 10 kts | 84° |
| 2026-05-05 17:03 | 33.64544 | -84.42776 | 1034 ft | 10 kts | 90° |
| 2026-05-05 17:03 | 33.64543 | -84.42687 | 1033 ft | 11 kts | 90° |
| 2026-05-05 17:04 | 33.64542 | -84.42603 | 1033 ft | 11 kts | 90° |
| 2026-05-05 17:04 | 33.64541 | -84.42509 | 1033 ft | 11 kts | 91° |
| 2026-05-05 17:04 | 33.64541 | -84.42413 | 1033 ft | 12 kts | 86° |
| 2026-05-05 17:04 | 33.64546 | -84.42316 | 1033 ft | 12 kts | 86° |
| 2026-05-05 17:05 | 33.64545 | -84.42220 | 1033 ft | 11 kts | 92° |
| 2026-05-05 17:05 | 33.64542 | -84.42128 | 1033 ft | 11 kts | 92° |
| 2026-05-05 17:05 | 33.64542 | -84.42039 | 1033 ft | 10 kts | 87° |
| 2026-05-05 17:05 | 33.64544 | -84.41952 | 1033 ft | 10 kts | 89° |
| 2026-05-05 17:06 | 33.64543 | -84.41867 | 1034 ft | 10 kts | 90° |
| 2026-05-05 17:06 | 33.64543 | -84.41784 | 1034 ft | 10 kts | 90° |
| 2026-05-05 17:06 | 33.64543 | -84.41703 | 1034 ft | 10 kts | 90° |
| 2026-05-05 17:06 | 33.64543 | -84.41620 | 1034 ft | 10 kts | 89° |
| 2026-05-05 17:07 | 33.64543 | -84.41539 | 1034 ft | 10 kts | 90° |
| 2026-05-05 17:07 | 33.64543 | -84.41456 | 1034 ft | 10 kts | 90° |
| 2026-05-05 17:07 | 33.64543 | -84.41372 | 1034 ft | 10 kts | 90° |
| 2026-05-05 17:07 | 33.64543 | -84.41288 | 1034 ft | 10 kts | 90° |
| 2026-05-05 17:08 | 33.64543 | -84.41203 | 1034 ft | 10 kts | 90° |
| 2026-05-05 17:08 | 33.64543 | -84.41122 | 1034 ft | 10 kts | 90° |
| 2026-05-05 17:08 | 33.64543 | -84.41031 | 1034 ft | 11 kts | 90° |
| 2026-05-05 17:08 | 33.64543 | -84.40941 | 1033 ft | 11 kts | 90° |
| 2026-05-05 17:09 | 33.64545 | -84.40850 | 1033 ft | 11 kts | 78° |
| 2026-05-05 17:09 | 33.64582 | -84.40810 | 1033 ft | 0 kts | 6° |
| 2026-05-05 17:10 | 33.64610 | -84.40810 | 1033 ft | 8 kts | 357° |
| 2026-05-05 17:10 | 33.64672 | -84.40853 | 1033 ft | 13 kts | 297° |
| 2026-05-05 17:10 | 33.64680 | -84.40978 | 1034 ft | 30 kts | 271° |
| 2026-05-05 17:10 | 33.64678 | -84.41525 | 1036 ft | 98 kts | 268° |
| 2026-05-05 17:11 | 33.64688 | -84.42565 | 1035 ft | 149 kts | 270° |
| 2026-05-05 17:11 | 33.64738 | -84.43884 | 1403 ft | 162 kts | 266° |
| 2026-05-05 17:11 | 33.64773 | -84.45194 | 2141 ft | 153 kts | 269° |
| 2026-05-05 17:11 | 33.64791 | -84.46521 | 2725 ft | 173 kts | 270° |
| 2026-05-05 17:12 | 33.64849 | -84.48107 | 3034 ft | 211 kts | 279° |
| 2026-05-05 17:12 | 33.65203 | -84.50000 | 3492 ft | 245 kts | 284° |
| 2026-05-05 17:12 | 33.65719 | -84.51872 | 4560 ft | 235 kts | 289° |
| 2026-05-05 17:12 | 33.66298 | -84.53815 | 4571 ft | 258 kts | 285° |
| 2026-05-05 17:13 | 33.66746 | -84.55893 | 5150 ft | 257 kts | 281° |
| 2026-05-05 17:13 | 33.67121 | -84.58001 | 5620 ft | 259 kts | 279° |
| 2026-05-05 17:13 | 33.67444 | -84.60141 | 6061 ft | 263 kts | 278° |
| 2026-05-05 17:13 | 33.67759 | -84.62291 | 6487 ft | 265 kts | 278° |
| 2026-05-05 17:14 | 33.68093 | -84.64475 | 6951 ft | 266 kts | 278° |
| 2026-05-05 17:14 | 33.68456 | -84.66659 | 7428 ft | 266 kts | 280° |
| 2026-05-05 17:14 | 33.68885 | -84.68821 | 7964 ft | 266 kts | 282° |
| 2026-05-05 17:14 | 33.69359 | -84.70982 | 8434 ft | 269 kts | 283° |
| 2026-05-05 17:15 | 33.69761 | -84.72672 | 8744 ft | 272 kts | 284° |
| 2026-05-05 17:15 | 33.70290 | -84.74875 | 9175 ft | 276 kts | 284° |
| 2026-05-05 17:15 | 33.70838 | -84.77083 | 9684 ft | 276 kts | 284° |
| 2026-05-05 17:15 | 33.71168 | -84.79362 | 9988 ft | 278 kts | 261° |
| 2026-05-05 17:16 | 33.70565 | -84.81533 | 10420 ft | 277 kts | 242° |
| 2026-05-05 17:16 | 33.69572 | -84.83595 | 10504 ft | 293 kts | 236° |
| 2026-05-05 17:16 | 33.68378 | -84.85674 | 10754 ft | 311 kts | 232° |
| 2026-05-05 17:16 | 33.66972 | -84.87737 | 11276 ft | 326 kts | 228° |
| 2026-05-05 17:17 | 33.65434 | -84.89769 | 11882 ft | 334 kts | 227° |
| 2026-05-05 17:17 | 33.63816 | -84.91828 | 12655 ft | 338 kts | 227° |
| 2026-05-05 17:17 | 33.62234 | -84.93864 | 13389 ft | 342 kts | 229° |
| 2026-05-05 17:17 | 33.60622 | -84.96008 | 14151 ft | 345 kts | 230° |
| 2026-05-05 17:18 | 33.59022 | -84.98171 | 14877 ft | 348 kts | 231° |
| 2026-05-05 17:18 | 33.57404 | -85.00350 | 15570 ft | 351 kts | 231° |
| 2026-05-05 17:18 | 33.55771 | -85.02545 | 16254 ft | 354 kts | 231° |
| 2026-05-05 17:18 | 33.54117 | -85.04758 | 16927 ft | 356 kts | 231° |
| 2026-05-05 17:19 | 33.52457 | -85.06979 | 17568 ft | 359 kts | 231° |
| 2026-05-05 17:19 | 33.50775 | -85.09218 | 18200 ft | 363 kts | 231° |
| 2026-05-05 17:19 | 33.49079 | -85.11483 | 18785 ft | 365 kts | 231° |
| 2026-05-05 17:19 | 33.47374 | -85.13748 | 19327 ft | 368 kts | 231° |
| 2026-05-05 17:20 | 33.45662 | -85.16032 | 19857 ft | 370 kts | 231° |
| 2026-05-05 17:20 | 33.43923 | -85.18331 | 20371 ft | 373 kts | 231° |
| 2026-05-05 17:20 | 33.42283 | -85.20689 | 20832 ft | 372 kts | 242° |
| 2026-05-05 17:20 | 33.41219 | -85.23486 | 21318 ft | 369 kts | 253° |
| 2026-05-05 17:21 | 33.40453 | -85.26431 | 21816 ft | 370 kts | 256° |
| 2026-05-05 17:21 | 33.39780 | -85.29412 | 22297 ft | 372 kts | 257° |
| 2026-05-05 17:21 | 33.39096 | -85.32412 | 22776 ft | 375 kts | 256° |
| 2026-05-05 17:22 | 33.37619 | -85.38444 | 23695 ft | 379 kts | 256° |
| 2026-05-05 17:22 | 33.36876 | -85.41436 | 24088 ft | 380 kts | 256° |
| 2026-05-05 17:22 | 33.36122 | -85.44479 | 24479 ft | 382 kts | 256° |
| 2026-05-05 17:22 | 33.35357 | -85.47559 | 24553 ft | 392 kts | 256° |
| 2026-05-05 17:23 | 33.34570 | -85.50731 | 24570 ft | 404 kts | 256° |
| 2026-05-05 17:23 | 33.33759 | -85.53992 | 24635 ft | 413 kts | 256° |
| 2026-05-05 17:23 | 33.32940 | -85.57272 | 25095 ft | 410 kts | 256° |
| 2026-05-05 17:23 | 33.32125 | -85.60534 | 25570 ft | 408 kts | 256° |
| 2026-05-05 17:24 | 33.31314 | -85.63781 | 26041 ft | 406 kts | 256° |
| 2026-05-05 17:24 | 33.30505 | -85.67010 | 26478 ft | 404 kts | 256° |
| 2026-05-05 17:24 | 33.29703 | -85.70216 | 26924 ft | 402 kts | 256° |
| 2026-05-05 17:24 | 33.28907 | -85.73370 | 27343 ft | 400 kts | 256° |
| 2026-05-05 17:25 | 33.28104 | -85.76551 | 27780 ft | 398 kts | 256° |
| 2026-05-05 17:25 | 33.27566 | -85.78688 | 28063 ft | 396 kts | 256° |
| 2026-05-05 17:25 | 33.26523 | -85.82858 | 28607 ft | 394 kts | 256° |
| 2026-05-05 17:25 | 33.25770 | -85.85849 | 28986 ft | 393 kts | 256° |
| 2026-05-05 17:26 | 33.24949 | -85.89103 | 29405 ft | 391 kts | 256° |
| 2026-05-05 17:26 | 33.24165 | -85.92210 | 29819 ft | 389 kts | 256° |
| 2026-05-05 17:26 | 33.23383 | -85.95301 | 30180 ft | 388 kts | 256° |
| 2026-05-05 17:26 | 33.22601 | -85.98382 | 30466 ft | 386 kts | 257° |
| 2026-05-05 17:27 | 33.21822 | -86.01451 | 30771 ft | 385 kts | 257° |
| 2026-05-05 17:27 | 33.21060 | -86.04452 | 31060 ft | 384 kts | 257° |
| 2026-05-05 17:27 | 33.20283 | -86.07507 | 31365 ft | 382 kts | 257° |
| 2026-05-05 17:27 | 33.19509 | -86.10542 | 31628 ft | 382 kts | 257° |
| 2026-05-05 17:28 | 33.18737 | -86.13568 | 31919 ft | 380 kts | 258° |
| 2026-05-05 17:28 | 33.17967 | -86.16588 | 32195 ft | 379 kts | 258° |
| 2026-05-05 17:28 | 33.17200 | -86.19589 | 32471 ft | 378 kts | 258° |
| 2026-05-05 17:28 | 33.16433 | -86.22585 | 32763 ft | 376 kts | 258° |
| 2026-05-05 17:29 | 33.15670 | -86.25568 | 33029 ft | 375 kts | 258° |
| 2026-05-05 17:29 | 33.14907 | -86.28540 | 33296 ft | 374 kts | 259° |
| 2026-05-05 17:29 | 33.14145 | -86.31516 | 33423 ft | 376 kts | 259° |
| 2026-05-05 17:30 | 33.12592 | -86.37563 | 33438 ft | 385 kts | 259° |
| 2026-05-05 17:30 | 33.11017 | -86.43688 | 33684 ft | 389 kts | 259° |
| 2026-05-05 17:30 | 33.10146 | -86.46731 | 33892 ft | 393 kts | 252° |
| 2026-05-05 17:31 | 33.08647 | -86.49544 | 34015 ft | 410 kts | 237° |
| 2026-05-05 17:31 | 33.04531 | -86.54448 | 34054 ft | 421 kts | 233° |
| 2026-05-05 17:32 | 33.00321 | -86.59380 | 34044 ft | 428 kts | 233° |
| 2026-05-05 17:32 | 32.96138 | -86.64414 | 34037 ft | 435 kts | 232° |
| 2026-05-05 17:32 | 32.93670 | -86.66612 | 34036 ft | 450 kts | 223° |
| 2026-05-05 17:33 | 32.91023 | -86.68600 | 34030 ft | 451 kts | 221° |
| 2026-05-05 17:33 | 32.85680 | -86.72477 | 34017 ft | 450 kts | 221° |
| 2026-05-05 17:34 | 32.80314 | -86.76278 | 33995 ft | 449 kts | 219° |
| 2026-05-05 17:34 | 32.74751 | -86.79650 | 33980 ft | 451 kts | 217° |
| 2026-05-05 17:35 | 32.69089 | -86.82912 | 33969 ft | 448 kts | 216° |
| 2026-05-05 17:35 | 32.63370 | -86.85942 | 33977 ft | 450 kts | 214° |
| 2026-05-05 17:36 | 32.57602 | -86.88813 | 33988 ft | 450 kts | 213° |
| 2026-05-05 17:36 | 32.51833 | -86.91580 | 34008 ft | 449 kts | 213° |
| 2026-05-05 17:37 | 32.46012 | -86.94286 | 34025 ft | 449 kts | 212° |
| 2026-05-05 17:37 | 32.40138 | -86.96870 | 34034 ft | 451 kts | 211° |
| 2026-05-05 17:38 | 32.34328 | -86.99500 | 34034 ft | 436 kts | 219° |
| 2026-05-05 17:38 | 32.29327 | -87.03307 | 34039 ft | 421 kts | 228° |
| 2026-05-05 17:39 | 32.24723 | -87.07563 | 34035 ft | 419 kts | 229° |
| 2026-05-05 17:39 | 32.20192 | -87.11796 | 34008 ft | 418 kts | 230° |
| 2026-05-05 17:40 | 32.15513 | -87.15951 | 33976 ft | 422 kts | 227° |
| 2026-05-05 17:40 | 32.10754 | -87.19994 | 33954 ft | 421 kts | 227° |
| 2026-05-05 17:41 | 32.06111 | -87.23972 | 33939 ft | 421 kts | 227° |
| 2026-05-05 17:41 | 32.01271 | -87.28110 | 33949 ft | 421 kts | 227° |
| 2026-05-05 17:42 | 31.96526 | -87.32148 | 33955 ft | 421 kts | 227° |
| 2026-05-05 17:42 | 31.91783 | -87.36188 | 33973 ft | 421 kts | 227° |
| 2026-05-05 17:43 | 31.87032 | -87.40228 | 33986 ft | 421 kts | 227° |
| 2026-05-05 17:43 | 31.82356 | -87.44187 | 33554 ft | 408 kts | 227° |
| 2026-05-05 17:43 | 31.80058 | -87.46132 | 32801 ft | 407 kts | 227° |
| 2026-05-05 17:44 | 31.77760 | -87.48096 | 32033 ft | 409 kts | 227° |
| 2026-05-05 17:44 | 31.75455 | -87.50055 | 31327 ft | 409 kts | 226° |
| 2026-05-05 17:44 | 31.73148 | -87.52013 | 30641 ft | 409 kts | 226° |
| 2026-05-05 17:44 | 31.70842 | -87.53964 | 29970 ft | 408 kts | 226° |
| 2026-05-05 17:45 | 31.68541 | -87.55912 | 29203 ft | 407 kts | 225° |
| 2026-05-05 17:45 | 31.66243 | -87.57857 | 28465 ft | 406 kts | 225° |
| 2026-05-05 17:45 | 31.63951 | -87.59791 | 27756 ft | 404 kts | 225° |
| 2026-05-05 17:45 | 31.61678 | -87.61711 | 27048 ft | 401 kts | 224° |
| 2026-05-05 17:46 | 31.59441 | -87.63593 | 26380 ft | 399 kts | 224° |
| 2026-05-05 17:46 | 31.57189 | -87.65493 | 25714 ft | 396 kts | 223° |
| 2026-05-05 17:46 | 31.54956 | -87.67374 | 25051 ft | 393 kts | 223° |
| 2026-05-05 17:46 | 31.52747 | -87.69235 | 24466 ft | 389 kts | 222° |
| 2026-05-05 17:47 | 31.50562 | -87.71072 | 23909 ft | 385 kts | 222° |
| 2026-05-05 17:47 | 31.48392 | -87.72899 | 23312 ft | 381 kts | 222° |
| 2026-05-05 17:47 | 31.46970 | -87.74094 | 22876 ft | 379 kts | 222° |
| 2026-05-05 17:47 | 31.44837 | -87.75885 | 22234 ft | 376 kts | 222° |
| 2026-05-05 17:48 | 31.42716 | -87.77664 | 21642 ft | 372 kts | 222° |
| 2026-05-05 17:48 | 31.40630 | -87.79416 | 21127 ft | 367 kts | 222° |
| 2026-05-05 17:48 | 31.38573 | -87.81143 | 20707 ft | 360 kts | 222° |
| 2026-05-05 17:48 | 31.36558 | -87.82830 | 20337 ft | 353 kts | 222° |
| 2026-05-05 17:49 | 31.34572 | -87.84492 | 19965 ft | 346 kts | 222° |
| 2026-05-05 17:49 | 31.32629 | -87.86119 | 19609 ft | 341 kts | 222° |
| 2026-05-05 17:49 | 31.30719 | -87.87720 | 19257 ft | 336 kts | 222° |
| 2026-05-05 17:49 | 31.28827 | -87.89304 | 18900 ft | 332 kts | 222° |
| 2026-05-05 17:50 | 31.26955 | -87.90872 | 18549 ft | 328 kts | 222° |
| 2026-05-05 17:50 | 31.25106 | -87.92415 | 18192 ft | 326 kts | 222° |
| 2026-05-05 17:50 | 31.23294 | -87.93931 | 17799 ft | 323 kts | 222° |
| 2026-05-05 17:50 | 31.21471 | -87.95454 | 17415 ft | 321 kts | 222° |
| 2026-05-05 17:51 | 31.19660 | -87.96966 | 17023 ft | 319 kts | 221° |
| 2026-05-05 17:51 | 31.17855 | -87.98470 | 16642 ft | 317 kts | 221° |
| 2026-05-05 17:51 | 31.16066 | -87.99962 | 16268 ft | 315 kts | 221° |
| 2026-05-05 17:51 | 31.14283 | -88.01447 | 15897 ft | 313 kts | 221° |
| 2026-05-05 17:52 | 31.12507 | -88.02927 | 15533 ft | 311 kts | 221° |
| 2026-05-05 17:52 | 31.10750 | -88.04388 | 15178 ft | 309 kts | 221° |
| 2026-05-05 17:52 | 31.09025 | -88.05828 | 14827 ft | 308 kts | 220° |
| 2026-05-05 17:52 | 31.07291 | -88.07268 | 14483 ft | 306 kts | 220° |
| 2026-05-05 17:53 | 31.05564 | -88.08703 | 14124 ft | 300 kts | 220° |
| 2026-05-05 17:53 | 31.03881 | -88.10100 | 13765 ft | 292 kts | 220° |
| 2026-05-05 17:53 | 31.02269 | -88.11494 | 13363 ft | 283 kts | 227° |
| 2026-05-05 17:53 | 31.01126 | -88.13254 | 12982 ft | 271 kts | 241° |
| 2026-05-05 17:54 | 31.00157 | -88.15147 | 12572 ft | 274 kts | 242° |
| 2026-05-05 17:54 | 30.99144 | -88.17056 | 12118 ft | 279 kts | 239° |
| 2026-05-05 17:54 | 30.98054 | -88.18910 | 11676 ft | 282 kts | 237° |
| 2026-05-05 17:54 | 30.96893 | -88.20773 | 11206 ft | 286 kts | 236° |
| 2026-05-05 17:55 | 30.95710 | -88.22649 | 10754 ft | 288 kts | 236° |
| 2026-05-05 17:55 | 30.94527 | -88.24541 | 10294 ft | 290 kts | 236° |
| 2026-05-05 17:55 | 30.93345 | -88.26443 | 9841 ft | 290 kts | 236° |
| 2026-05-05 17:55 | 30.92158 | -88.28356 | 9310 ft | 292 kts | 235° |
| 2026-05-05 17:56 | 30.91017 | -88.30310 | 8795 ft | 292 kts | 245° |
| 2026-05-05 17:56 | 30.90413 | -88.32545 | 8606 ft | 288 kts | 257° |
| 2026-05-05 17:56 | 30.90063 | -88.34794 | 8696 ft | 277 kts | 261° |
| 2026-05-05 17:56 | 30.89790 | -88.36971 | 8696 ft | 263 kts | 262° |
| 2026-05-05 17:57 | 30.89411 | -88.38978 | 8498 ft | 248 kts | 243° |
| 2026-05-05 17:57 | 30.88231 | -88.40316 | 8382 ft | 236 kts | 205° |
| 2026-05-05 17:57 | 30.86642 | -88.40607 | 8203 ft | 232 kts | 181° |
| 2026-05-05 17:57 | 30.85100 | -88.40012 | 7782 ft | 243 kts | 145° |
| 2026-05-05 17:58 | 30.84046 | -88.38427 | 7236 ft | 255 kts | 121° |
| 2026-05-05 17:58 | 30.83207 | -88.36576 | 6701 ft | 262 kts | 120° |
| 2026-05-05 17:58 | 30.82383 | -88.34672 | 6192 ft | 264 kts | 120° |
| 2026-05-05 17:58 | 30.81365 | -88.32919 | 5588 ft | 262 kts | 137° |
| 2026-05-05 17:59 | 30.79871 | -88.31778 | 5086 ft | 254 kts | 160° |
| 2026-05-05 17:59 | 30.78290 | -88.30894 | 4906 ft | 261 kts | 155° |
| 2026-05-05 17:59 | 30.76725 | -88.29790 | 4924 ft | 263 kts | 150° |
| 2026-05-05 17:59 | 30.75245 | -88.28606 | 5220 ft | 254 kts | 149° |
| 2026-05-05 18:00 | 30.73789 | -88.27445 | 5470 ft | 248 kts | 150° |
| 2026-05-05 18:00 | 30.72423 | -88.26392 | 5564 ft | 225 kts | 152° |
| 2026-05-05 18:00 | 30.71145 | -88.25413 | 5336 ft | 221 kts | 151° |
| 2026-05-05 18:00 | 30.69846 | -88.24441 | 4930 ft | 223 kts | 152° |
| 2026-05-05 18:01 | 30.68524 | -88.23487 | 4558 ft | 223 kts | 153° |
| 2026-05-05 18:01 | 30.67201 | -88.22571 | 4419 ft | 217 kts | 153° |
| 2026-05-05 18:01 | 30.65868 | -88.21862 | 4334 ft | 207 kts | 166° |
| 2026-05-05 18:01 | 30.64463 | -88.21506 | 4045 ft | 207 kts | 175° |
| 2026-05-05 18:02 | 30.63029 | -88.21378 | 3796 ft | 207 kts | 180° |
| 2026-05-05 18:02 | 30.61600 | -88.21385 | 3705 ft | 202 kts | 184° |
| 2026-05-05 18:02 | 30.60229 | -88.21456 | 3553 ft | 201 kts | 184° |
| 2026-05-05 18:02 | 30.58825 | -88.21512 | 3257 ft | 203 kts | 185° |
| 2026-05-05 18:03 | 30.57428 | -88.21809 | 3005 ft | 204 kts | 196° |
| 2026-05-05 18:03 | 30.56199 | -88.22580 | 2791 ft | 202 kts | 222° |
| 2026-05-05 18:03 | 30.55445 | -88.23938 | 2723 ft | 203 kts | 248° |
| 2026-05-05 18:03 | 30.55366 | -88.25577 | 2756 ft | 208 kts | 282° |
| 2026-05-05 18:04 | 30.56061 | -88.27074 | 2922 ft | 220 kts | 308° |
| 2026-05-05 18:04 | 30.57265 | -88.28238 | 3128 ft | 229 kts | 322° |
| 2026-05-05 18:04 | 30.58676 | -88.29178 | 3212 ft | 239 kts | 338° |
| 2026-05-05 18:04 | 30.60252 | -88.29778 | 3426 ft | 243 kts | 342° |
| 2026-05-05 18:05 | 30.61842 | -88.30278 | 3501 ft | 233 kts | 343° |
| 2026-05-05 18:05 | 30.63426 | -88.30745 | 3279 ft | 237 kts | 345° |
| 2026-05-05 18:05 | 30.65015 | -88.31145 | 3145 ft | 231 kts | 346° |
| 2026-05-05 18:05 | 30.66604 | -88.31510 | 2902 ft | 234 kts | 348° |
| 2026-05-05 18:06 | 30.68159 | -88.31843 | 2910 ft | 222 kts | 348° |
| 2026-05-05 18:06 | 30.69168 | -88.32048 | 2720 ft | 224 kts | 348° |
| 2026-05-05 18:06 | 30.71224 | -88.32396 | 2594 ft | 219 kts | 351° |
| 2026-05-05 18:06 | 30.72735 | -88.32661 | 2492 ft | 221 kts | 349° |
| 2026-05-05 18:07 | 30.74246 | -88.32833 | 2601 ft | 211 kts | 4° |
| 2026-05-05 18:07 | 30.75618 | -88.32485 | 2801 ft | 197 kts | 21° |
| 2026-05-05 18:07 | 30.76906 | -88.31899 | 2718 ft | 198 kts | 27° |
| 2026-05-05 18:07 | 30.77782 | -88.30939 | 2661 ft | 158 kts | 79° |
| 2026-05-05 18:08 | 30.77480 | -88.29924 | 2116 ft | 134 kts | 155° |
| 2026-05-05 18:08 | 30.76562 | -88.29824 | 1634 ft | 135 kts | 181° |
| 2026-05-05 18:08 | 30.75648 | -88.29763 | 1380 ft | 125 kts | 169° |
| 2026-05-05 18:08 | 30.74911 | -88.29348 | 1245 ft | 119 kts | 144° |
| 2026-05-05 18:09 | 30.74283 | -88.28704 | 1174 ft | 120 kts | 148° |
| 2026-05-05 18:09 | 30.73587 | -88.28193 | 1051 ft | 118 kts | 151° |
| 2026-05-05 18:09 | 30.72890 | -88.27580 | 882 ft | 132 kts | 146° |
| 2026-05-05 18:09 | 30.72130 | -88.26969 | 776 ft | 127 kts | 148° |
| 2026-05-05 18:10 | 30.71430 | -88.26367 | 610 ft | 122 kts | 137° |
| 2026-05-05 18:10 | 30.70738 | -88.25771 | 396 ft | 127 kts | 151° |
| 2026-05-05 18:10 | 30.70022 | -88.25214 | 223 ft | 114 kts | 149° |
| 2026-05-05 18:10 | 30.69473 | -88.24768 | 219 ft | 80 kts | 142° |
| 2026-05-05 18:11 | 30.69094 | -88.24453 | 219 ft | 57 kts | 145° |
| 2026-05-05 18:11 | 30.68889 | -88.24281 | 217 ft | 18 kts | 145° |
| 2026-05-05 18:11 | 30.68786 | -88.24206 | 221 ft | 17 kts | 163° |
| 2026-05-05 18:11 | 30.68681 | -88.24191 | 219 ft | 14 kts | 171° |
| 2026-05-05 18:12 | 30.68600 | -88.24203 | 221 ft | 8 kts | 198° |
| 2026-05-05 18:12 | 30.68550 | -88.24221 | 221 ft | 7 kts | 198° |
| 2026-05-05 18:12 | 30.68502 | -88.24240 | 222 ft | 7 kts | 201° |
| 2026-05-05 18:12 | 30.68456 | -88.24261 | 222 ft | 7 kts | 201° |
| 2026-05-05 18:13 | 30.68423 | -88.24283 | 223 ft | 5 kts | 223° |
| 2026-05-05 18:13 | 30.68404 | -88.24312 | 223 ft | 5 kts | 243° |
| 2026-05-05 18:13 | 30.68396 | -88.24340 | 223 ft | 0 kts | 269° |
| 2026-05-05 18:13 | 30.68396 | -88.24358 | 223 ft | 5 kts | 271° |
| 2026-05-05 18:14 | 30.68396 | -88.24416 | 222 ft | 9 kts | 269° |
| 2026-05-05 18:14 | 30.68395 | -88.24501 | 222 ft | 11 kts | 270° |
| 2026-05-05 18:14 | 30.68393 | -88.24588 | 223 ft | 10 kts | 240° |
| 2026-05-05 18:14 | 30.68348 | -88.24646 | 223 ft | 8 kts | 217° |
| 2026-05-05 18:15 | 30.68319 | -88.24661 | 224 ft | 1 kts | 182° |
| 2026-05-05 18:15 | 30.68316 | -88.24661 | 224 ft | 1 kts | 174° |
| 2026-05-05 18:15 | 30.68307 | -88.24659 | 224 ft | 2 kts | 168° |
| 2026-05-05 18:15 | 30.68294 | -88.24656 | 224 ft | 2 kts | 168° |
| 2026-05-05 18:16 | 30.68282 | -88.24653 | 224 ft | 0 kts | 161° |
| 2026-05-05 18:16 | 30.68276 | -88.24646 | 224 ft | 1 kts | 124° |
| 2026-05-05 18:16 | 30.68270 | -88.24628 | 224 ft | 2 kts | 114° |
| 2026-05-05 18:16 | 30.68253 | -88.24606 | 224 ft | 5 kts | 137° |
| 2026-05-05 18:17 | 30.68247 | -88.24599 | 224 ft | 1 kts | 139° |
| 2026-05-05 18:17 | 30.68243 | -88.24595 | 224 ft | 0 kts | 140° |
| 2026-05-05 18:17 | 30.68242 | -88.24594 | 224 ft | 0 kts | 140° |